createdAt,value
2022-09-01T00:00:13.431Z,16.16
2022-09-01T00:03:01.208Z,16.07
2022-09-01T00:05:32.779Z,15.99
2022-09-01T00:08:00.668Z,15.91
2022-09-01T00:10:28.357Z,15.83
2022-09-01T00:12:56.246Z,15.75
2022-09-01T00:15:24.579Z,15.68
2022-09-01T00:17:53.021Z,15.62
2022-09-01T00:20:21.089Z,15.56
2022-09-01T00:22:49.643Z,15.52
2022-09-01T00:25:20.016Z,15.48
2022-09-01T00:27:49.253Z,15.43
2022-09-01T00:30:17.786Z,15.38
2022-09-01T00:32:46.828Z,15.34
2022-09-01T00:35:16.515Z,15.27
2022-09-01T00:37:44.815Z,15.23
2022-09-01T00:40:14.183Z,15.19
2022-09-01T00:42:43.004Z,15.14
2022-09-01T00:45:11.512Z,15.11
2022-09-01T00:47:39.581Z,15.06
2022-09-01T00:50:09.085Z,15.02
2022-09-01T00:52:43.709Z,14.99
2022-09-01T00:55:32.758Z,14.94
2022-09-01T00:58:01.591Z,14.88
2022-09-01T01:00:31.256Z,14.84
2022-09-01T01:02:59.369Z,14.82
2022-09-01T01:05:34.169Z,14.78
2022-09-01T01:08:03.075Z,14.76
2022-09-01T01:10:33.084Z,14.72
2022-09-01T01:13:04.760Z,14.69
2022-09-01T01:15:32.648Z,14.66
2022-09-01T01:18:00.509Z,14.62
2022-09-01T01:20:49.113Z,14.59
2022-09-01T01:23:24.984Z,14.55
2022-09-01T01:25:56.539Z,14.54
2022-09-01T01:28:33.386Z,14.52
2022-09-01T01:31:06.214Z,14.49
2022-09-01T01:33:41.583Z,14.42
2022-09-01T01:36:17.008Z,14.38
2022-09-01T01:38:49.220Z,14.35
2022-09-01T01:41:22.711Z,14.31
2022-09-01T01:43:51.121Z,14.28
2022-09-01T01:46:20.707Z,14.24
2022-09-01T01:48:52.453Z,14.17
2022-09-01T01:51:24.991Z,14.15
2022-09-01T01:53:53.499Z,14.10
2022-09-01T01:56:25.657Z,14.07
2022-09-01T01:58:56.425Z,14.04
2022-09-01T02:01:25.871Z,14.01
2022-09-01T02:03:54.754Z,13.98
2022-09-01T02:06:25.023Z,13.94
2022-09-01T02:08:58.058Z,13.93
2022-09-01T02:11:26.597Z,13.92
2022-09-01T02:13:57.220Z,13.90
2022-09-01T02:16:28.115Z,13.88
2022-09-01T02:18:57.122Z,13.86
2022-09-01T02:21:27.073Z,13.82
2022-09-01T02:24:02.194Z,13.79
2022-09-01T02:26:38.566Z,13.74
2022-09-01T02:29:10.077Z,13.71
2022-09-01T02:31:40.494Z,13.67
2022-09-01T02:34:13.969Z,13.64
2022-09-01T02:36:50.043Z,13.60
2022-09-01T02:39:30.379Z,13.55
2022-09-01T02:41:58.518Z,13.51
2022-09-01T02:44:31.029Z,13.48
2022-09-01T02:47:00.973Z,13.46
2022-09-01T02:49:30.026Z,13.44
2022-09-01T02:52:01.824Z,13.44
2022-09-01T02:54:32.626Z,13.42
2022-09-01T02:57:01.591Z,13.41
2022-09-01T02:59:31.078Z,13.39
2022-09-01T03:02:01.152Z,13.36
2022-09-01T03:04:34.834Z,13.33
2022-09-01T03:07:05.151Z,13.32
2022-09-01T03:09:32.898Z,13.27
2022-09-01T03:12:00.764Z,13.24
2022-09-01T03:14:30.038Z,13.21
2022-09-01T03:17:00.601Z,13.19
2022-09-01T03:19:32.274Z,13.16
2022-09-01T03:22:00.240Z,13.12
2022-09-01T03:24:30.838Z,13.09
2022-09-01T03:26:58.579Z,13.04
2022-09-01T03:29:26.313Z,13.01
2022-09-01T03:31:55.130Z,12.98
2022-09-01T03:34:23.656Z,12.94
2022-09-01T03:36:54.487Z,12.90
2022-09-01T03:39:28.335Z,12.84
2022-09-01T03:41:58.099Z,12.84
2022-09-01T03:44:26.505Z,12.83
2022-09-01T03:46:54.251Z,12.81
2022-09-01T03:49:25.299Z,12.79
2022-09-01T03:51:58.481Z,12.78
2022-09-01T03:54:30.240Z,12.77
2022-09-01T03:56:59.884Z,12.76
2022-09-01T03:59:28.507Z,12.74
2022-09-01T04:01:58.525Z,12.71
2022-09-01T04:04:26.793Z,12.72
2022-09-01T04:06:55.270Z,12.73
2022-09-01T04:09:23.158Z,12.75
2022-09-01T04:11:51.654Z,12.78
2022-09-01T04:14:20.404Z,12.83
2022-09-01T04:17:08.460Z,12.89
2022-09-01T04:19:39.282Z,12.96
2022-09-01T04:22:08.085Z,13.04
2022-09-01T04:24:46.172Z,13.13
2022-09-01T04:27:15.383Z,13.23
2022-09-01T04:29:46.535Z,13.30
2022-09-01T04:32:15.839Z,13.41
2022-09-01T04:34:48.972Z,13.54
2022-09-01T04:37:21.144Z,13.62
2022-09-01T04:39:56.838Z,13.74
2022-09-01T04:42:29.597Z,13.85
2022-09-01T04:45:02.074Z,13.98
2022-09-01T04:47:42.225Z,14.10
2022-09-01T04:50:14.908Z,14.16
2022-09-01T04:52:48.135Z,14.28
2022-09-01T04:55:29.905Z,14.46
2022-09-01T04:58:00.042Z,14.60
2022-09-01T05:00:32.314Z,14.69
2022-09-01T05:03:06.053Z,14.84
2022-09-01T05:06:01.194Z,14.99
2022-09-01T05:08:32.925Z,15.18
2022-09-01T05:11:08.450Z,15.30
2022-09-01T05:13:45.448Z,15.39
2022-09-01T05:16:15.891Z,15.50
2022-09-01T05:18:48.980Z,15.65
2022-09-01T05:21:22.550Z,15.82
2022-09-01T05:23:51.910Z,15.92
2022-09-01T05:26:29.976Z,16.06
2022-09-01T05:29:00.555Z,16.15
2022-09-01T05:31:37.842Z,16.25
2022-09-01T05:34:09.578Z,16.36
2022-09-01T05:36:42.747Z,16.48
2022-09-01T05:39:14.811Z,16.50
2022-09-01T05:41:43.969Z,16.56
2022-09-01T05:44:14.091Z,16.60
2022-09-01T05:46:44.571Z,16.72
2022-09-01T05:49:16.199Z,16.80
2022-09-01T05:51:50.778Z,16.92
2022-09-01T05:54:23.470Z,17.03
2022-09-01T05:56:53.515Z,17.10
2022-09-01T05:59:26.057Z,17.08
2022-09-01T06:01:59.294Z,16.66
2022-09-01T06:04:27.963Z,16.31
2022-09-01T06:07:05.975Z,16.18
2022-09-01T06:09:44.622Z,16.59
2022-09-01T06:12:23.111Z,17.06
2022-09-01T06:14:53.731Z,17.44
2022-09-01T06:17:25.153Z,17.72
2022-09-01T06:19:56.207Z,17.91
2022-09-01T06:22:26.819Z,17.66
2022-09-01T06:25:01.102Z,17.38
2022-09-01T06:27:34.529Z,17.19
2022-09-01T06:30:02.930Z,17.08
2022-09-01T06:32:35.397Z,17.01
2022-09-01T06:35:04.122Z,16.97
2022-09-01T06:37:34.580Z,16.97
2022-09-01T06:52:11.857Z,17.57
2022-09-01T06:54:41.517Z,17.56
2022-09-01T06:59:57.819Z,17.68
2022-09-01T07:02:27.106Z,17.79
2022-09-01T07:08:19.841Z,17.99
2022-09-01T07:14:16.563Z,18.09
2022-09-01T07:16:51.835Z,18.13
2022-09-01T07:19:51.524Z,18.25
2022-09-01T07:22:38.299Z,18.40
2022-09-01T07:28:10.350Z,18.64
2022-09-01T07:30:48.864Z,18.80
2022-09-01T07:36:29.543Z,18.89
2022-09-01T07:42:31.579Z,18.50
2022-09-01T07:45:26.939Z,19.16
2022-09-01T07:48:03.515Z,19.38
2022-09-01T07:53:34.556Z,19.58
2022-09-01T07:56:09.720Z,19.69
2022-09-01T07:58:42.213Z,19.80
2022-09-01T08:01:13.325Z,19.87
2022-09-01T08:03:42.324Z,19.94
2022-09-01T08:06:13.716Z,19.99
2022-09-01T08:08:42.383Z,20.09
2022-09-01T08:11:10.144Z,20.17
2022-09-01T08:13:41.779Z,20.23
2022-09-01T08:16:18.585Z,20.40
2022-09-01T08:18:49.350Z,20.55
2022-09-01T08:21:52.546Z,20.72
2022-09-01T08:24:26.513Z,20.92
2022-09-01T08:26:54.227Z,21.08
2022-09-01T08:29:21.905Z,21.24
2022-09-01T08:31:50.871Z,21.44
2022-09-01T08:34:19.820Z,21.64
2022-09-01T08:36:48.527Z,21.83
2022-09-01T08:39:16.567Z,22.31
2022-09-01T08:42:01.732Z,23.33
2022-09-01T08:44:34.830Z,24.22
2022-09-01T08:47:07.181Z,24.87
2022-09-01T08:49:44.362Z,25.96
2022-09-01T08:52:39.555Z,28.42
2022-09-01T08:55:25.981Z,30.29
2022-09-01T08:57:59.907Z,32.83
2022-09-01T09:00:57.895Z,33.51
2022-09-01T09:03:51.627Z,32.36
2022-09-01T09:06:26.536Z,30.85
2022-09-01T09:08:58.090Z,29.69
2022-09-01T09:11:45.836Z,28.48
2022-09-01T09:14:32.042Z,27.30
2022-09-01T09:17:00.440Z,26.09
2022-09-01T09:19:34.323Z,25.00
2022-09-01T09:22:06.011Z,23.83
2022-09-01T09:24:52.489Z,22.82
2022-09-01T09:27:29.548Z,22.00
2022-09-01T09:30:05.692Z,21.37
2022-09-01T09:33:24.897Z,20.89
2022-09-01T09:35:46.679Z,20.52
2022-09-01T09:38:28.470Z,20.33
2022-09-01T09:44:01.180Z,21.44
2022-09-01T09:46:32.004Z,24.86
2022-09-01T09:49:13.822Z,28.66
2022-09-01T09:51:44.783Z,32.40
2022-09-01T09:54:15.830Z,35.60
2022-09-01T09:56:46.396Z,38.49
2022-09-01T09:59:39.845Z,40.92
2022-09-01T10:02:33.233Z,43.35
2022-09-01T10:05:22.020Z,45.38
2022-09-01T10:07:50.070Z,47.18
2022-09-01T10:10:57.579Z,48.81
2022-09-01T10:13:31.458Z,48.91
2022-09-01T10:16:05.043Z,47.20
2022-09-01T10:18:39.043Z,44.87
2022-09-01T10:21:16.648Z,42.33
2022-09-01T10:23:44.967Z,39.91
2022-09-01T10:26:19.493Z,37.43
2022-09-01T10:28:56.078Z,35.22
2022-09-01T10:31:29.402Z,34.06
2022-09-01T10:34:02.854Z,34.33
2022-09-01T10:36:35.945Z,35.79
2022-09-01T10:39:08.753Z,37.72
2022-09-01T10:41:48.232Z,38.74
2022-09-01T10:44:22.669Z,38.49
2022-09-01T10:46:51.592Z,37.49
2022-09-01T10:49:46.803Z,37.27
2022-09-01T10:52:43.726Z,38.12
2022-09-01T10:55:32.546Z,38.09
2022-09-01T10:59:30.326Z,37.45
2022-09-01T11:03:53.383Z,35.93
2022-09-01T11:07:11.699Z,34.89
2022-09-01T11:09:39.789Z,35.09
2022-09-01T11:12:29.697Z,36.16
2022-09-01T11:15:02.039Z,37.48
2022-09-01T11:17:37.418Z,38.31
2022-09-01T11:20:36.784Z,38.27
2022-09-01T11:23:11.675Z,37.39
2022-09-01T11:25:43.846Z,35.94
2022-09-01T11:28:14.891Z,34.50
2022-09-01T11:30:55.342Z,33.15
2022-09-01T11:33:40.129Z,32.22
2022-09-01T11:36:20.381Z,31.53
2022-09-01T11:38:51.343Z,30.67
2022-09-01T11:41:33.981Z,30.06
2022-09-01T11:44:04.335Z,29.62
2022-09-01T11:46:33.714Z,29.32
2022-09-01T11:49:29.062Z,28.94
2022-09-01T11:51:57.826Z,28.30
2022-09-01T11:54:25.750Z,27.70
2022-09-01T11:56:53.602Z,27.40
2022-09-01T11:59:36.341Z,27.15
2022-09-01T12:02:04.289Z,26.86
2022-09-01T12:04:55.406Z,26.68
2022-09-01T12:07:39.205Z,26.34
2022-09-01T12:10:38.433Z,25.80
2022-09-01T12:13:12.996Z,25.24
2022-09-01T12:16:06.960Z,24.91
2022-09-01T12:18:41.695Z,24.65
2022-09-01T12:21:22.930Z,24.68
2022-09-01T12:23:50.900Z,25.06
2022-09-01T12:26:22.276Z,25.40
2022-09-01T12:28:50.912Z,25.50
2022-09-01T12:31:26.214Z,25.35
2022-09-01T12:33:56.046Z,25.15
2022-09-01T12:36:34.795Z,24.84
2022-09-01T12:39:17.716Z,24.46
2022-09-01T12:41:48.687Z,24.06
2022-09-01T12:44:38.407Z,23.62
2022-09-01T12:47:13.436Z,23.33
2022-09-01T12:49:48.073Z,23.18
2022-09-01T12:52:22.271Z,23.04
2022-09-01T12:55:11.931Z,22.95
2022-09-01T12:57:45.418Z,22.69
2022-09-01T13:00:20.697Z,22.47
2022-09-01T13:03:08.219Z,22.26
2022-09-01T13:05:42.389Z,22.08
2022-09-01T13:08:13.159Z,21.95
2022-09-01T13:10:43.601Z,21.85
2022-09-01T13:13:12.648Z,21.82
2022-09-01T13:16:12.686Z,21.79
2022-09-01T13:21:32.117Z,21.71
2022-09-01T13:24:00.686Z,21.62
2022-09-01T13:26:31.430Z,21.60
2022-09-01T13:29:00.126Z,21.62
2022-09-01T13:31:30.061Z,21.68
2022-09-01T13:34:21.804Z,21.74
2022-09-01T13:36:51.575Z,21.96
2022-09-01T13:39:22.806Z,22.09
2022-09-01T13:41:50.748Z,22.17
2022-09-01T13:44:18.821Z,22.24
2022-09-01T13:49:44.108Z,22.64
2022-09-01T13:52:13.284Z,22.83
2022-09-01T13:54:42.043Z,22.97
2022-09-01T13:57:11.676Z,23.10
2022-09-01T13:59:39.554Z,23.07
2022-09-01T14:02:07.822Z,22.91
2022-09-01T14:04:35.610Z,22.69
2022-09-01T14:07:03.942Z,22.43
2022-09-01T14:09:31.844Z,22.17
2022-09-01T14:11:59.576Z,22.00
2022-09-01T14:15:10.867Z,21.99
2022-09-01T14:17:15.869Z,22.33
2022-09-01T14:19:44.181Z,22.55
2022-09-01T14:22:12.598Z,22.58
2022-09-01T14:24:41.012Z,22.44
2022-09-01T14:27:09.216Z,22.21
2022-09-01T14:32:07.897Z,21.64
2022-09-01T14:34:36.292Z,21.37
2022-09-01T14:37:04.269Z,21.11
2022-09-01T14:39:32.428Z,20.92
2022-09-01T14:42:00.119Z,20.75
2022-09-01T14:44:27.785Z,20.60
2022-09-01T14:46:56.170Z,20.48
2022-09-01T14:49:23.870Z,20.37
2022-09-01T14:54:40.700Z,20.28
2022-09-01T14:59:56.274Z,20.61
2022-09-01T15:02:25.404Z,20.93
2022-09-01T15:04:52.964Z,21.18
2022-09-01T15:07:21.349Z,21.39
2022-09-01T15:09:49.819Z,21.55
2022-09-01T15:12:17.624Z,21.68
2022-09-01T15:14:45.690Z,21.76
2022-09-01T15:17:13.459Z,21.80
2022-09-01T15:19:41.210Z,21.79
2022-09-01T15:22:10.888Z,21.75
2022-09-01T15:24:38.797Z,21.64
2022-09-01T15:27:06.881Z,21.48
2022-09-01T15:29:34.935Z,21.32
2022-09-01T15:32:03.589Z,21.12
2022-09-01T15:34:31.900Z,20.96
2022-09-01T15:36:59.570Z,20.81
2022-09-01T15:39:34.866Z,20.61
2022-09-01T15:42:06.364Z,20.39
2022-09-01T15:44:35.806Z,20.17
2022-09-01T15:47:04.165Z,19.95
2022-09-01T15:49:31.828Z,19.76
2022-09-01T15:51:59.469Z,19.57
2022-09-01T15:54:30.486Z,19.42
2022-09-01T15:56:58.559Z,19.31
2022-09-01T15:59:26.486Z,19.18
2022-09-01T16:01:57.621Z,19.08
2022-09-01T16:04:27.917Z,18.98
2022-09-01T16:06:56.839Z,18.87
2022-09-01T16:09:26.765Z,18.77
2022-09-01T16:11:55.666Z,18.67
2022-09-01T16:14:23.795Z,18.59
2022-09-01T16:16:59.703Z,18.51
2022-09-01T16:19:45.901Z,18.45
2022-09-01T16:22:35.838Z,18.38
2022-09-01T16:25:23.602Z,18.31
2022-09-01T16:27:51.483Z,18.25
2022-09-01T16:30:23.472Z,18.19
2022-09-01T16:32:51.620Z,18.13
2022-09-01T16:35:24.266Z,18.07
2022-09-01T16:38:13.646Z,18.00
2022-09-01T16:40:56.463Z,17.94
2022-09-01T16:43:24.714Z,17.89
2022-09-01T16:46:12.556Z,17.83
2022-09-01T16:48:47.119Z,17.76
2022-09-01T16:51:27.973Z,17.69
2022-09-01T16:54:10.285Z,17.63
2022-09-01T16:56:58.462Z,17.55
2022-09-01T16:59:54.762Z,17.48
2022-09-01T17:02:38.579Z,17.38
2022-09-01T17:05:32.892Z,17.29
2022-09-01T17:08:23.948Z,17.20
2022-09-01T17:11:05.177Z,17.09
2022-09-01T17:13:40.167Z,16.99
2022-09-01T17:16:12.827Z,16.91
2022-09-01T17:18:44.402Z,16.81
2022-09-01T17:21:22.153Z,16.71
2022-09-01T17:24:13.973Z,16.60
2022-09-01T17:26:47.789Z,16.48
2022-09-01T17:29:23.285Z,16.36
2022-09-01T17:32:03.143Z,16.23
2022-09-01T17:34:56.463Z,16.11
2022-09-01T17:37:51.017Z,15.98
2022-09-01T17:40:23.970Z,15.85
2022-09-01T17:43:27.377Z,15.70
2022-09-01T17:46:14.244Z,15.54
2022-09-01T17:48:56.880Z,15.40
2022-09-01T17:51:27.469Z,15.26
2022-09-01T17:54:07.388Z,15.14
2022-09-01T17:57:09.201Z,15.01
2022-09-01T17:59:41.817Z,14.88
2022-09-01T18:02:42.124Z,14.76
2022-09-01T18:05:24.458Z,14.62
2022-09-01T18:08:17.754Z,14.51
2022-09-01T18:10:54.810Z,14.41
2022-09-01T18:13:42.493Z,14.34
2022-09-01T18:16:19.732Z,14.25
2022-09-01T18:18:49.040Z,14.18
2022-09-01T18:21:18.546Z,14.11
2022-09-01T18:23:49.111Z,14.05
2022-09-01T18:26:32.193Z,14.04
2022-09-01T18:29:01.664Z,14.23
2022-09-01T18:31:29.407Z,14.80
2022-09-01T18:34:34.738Z,15.29
2022-09-01T18:37:11.552Z,15.68
2022-09-01T18:39:53.661Z,15.93
2022-09-01T18:42:29.292Z,15.99
2022-09-01T18:45:05.272Z,15.57
2022-09-01T18:47:39.550Z,15.13
2022-09-01T18:50:55.782Z,14.78
2022-09-01T18:53:38.725Z,14.45
2022-09-01T18:56:31.466Z,14.37
2022-09-01T18:59:32.173Z,14.90
2022-09-01T19:02:47.639Z,15.31
2022-09-01T19:05:38.167Z,15.55
2022-09-01T19:08:27.642Z,15.71
2022-09-01T19:11:07.693Z,15.83
2022-09-01T19:13:53.402Z,15.80
2022-09-01T19:16:43.371Z,15.28
2022-09-01T19:19:13.824Z,14.73
2022-09-01T19:21:43.761Z,14.37
2022-09-01T19:24:17.259Z,14.12
2022-09-01T19:26:48.305Z,14.08
2022-09-01T19:29:21.382Z,14.47
2022-09-01T19:32:01.868Z,14.84
2022-09-01T19:34:36.881Z,15.06
2022-09-01T19:37:05.771Z,15.19
2022-09-01T19:39:44.481Z,15.27
2022-09-01T19:42:34.521Z,15.01
2022-09-01T19:45:07.864Z,14.41
2022-09-01T19:48:11.512Z,14.11
2022-09-01T19:50:59.769Z,14.46
2022-09-01T19:53:27.401Z,14.74
2022-09-01T19:56:04.739Z,14.91
2022-09-01T19:58:42.561Z,15.02
2022-09-01T20:01:15.943Z,15.10
2022-09-01T20:03:47.586Z,15.15
2022-09-01T20:09:22.787Z,15.23
2022-09-01T20:11:56.324Z,15.25
2022-09-01T20:14:33.136Z,15.27
2022-09-01T20:17:08.985Z,15.29
2022-09-01T20:19:44.946Z,15.29
2022-09-01T20:22:12.933Z,15.28
2022-09-01T20:24:40.674Z,15.27
2022-09-01T20:27:35.133Z,15.25
2022-09-01T20:30:10.958Z,15.22
2022-09-01T20:32:56.362Z,15.20
2022-09-01T20:35:35.176Z,15.17
2022-09-01T20:38:31.301Z,15.14
2022-09-01T20:41:03.834Z,15.11
2022-09-01T20:43:37.250Z,15.08
2022-09-01T20:46:05.260Z,15.06
2022-09-01T20:48:39.573Z,15.03
2022-09-01T20:51:11.782Z,15.00
2022-09-01T20:54:16.613Z,14.98
2022-09-01T20:56:59.573Z,14.94
2022-09-01T20:59:45.501Z,14.92
2022-09-01T21:02:42.673Z,14.88
2022-09-01T21:05:19.345Z,14.84
2022-09-01T21:08:25.954Z,14.80
2022-09-01T21:11:21.641Z,14.74
2022-09-01T21:14:04.701Z,14.70
2022-09-01T21:17:04.056Z,14.67
2022-09-01T21:19:56.454Z,14.62
2022-09-01T21:22:24.215Z,14.58
2022-09-01T21:24:52.625Z,14.55
2022-09-01T21:27:23.845Z,14.51
2022-09-01T21:30:21.001Z,14.47
2022-09-01T21:32:48.845Z,14.42
2022-09-01T21:35:18.907Z,14.39
2022-09-01T21:37:46.661Z,14.35
2022-09-01T21:40:15.676Z,14.31
2022-09-01T21:42:49.372Z,14.28
2022-09-01T21:45:18.837Z,14.24
2022-09-01T21:47:47.998Z,14.20
2022-09-01T21:50:17.528Z,14.15
2022-09-01T21:52:45.106Z,14.09
2022-09-01T21:55:13.413Z,14.03
2022-09-01T21:57:42.186Z,14.01
2022-09-01T22:00:14.582Z,13.97
2022-09-01T22:02:46.561Z,13.93
2022-09-01T22:05:14.625Z,13.91
2022-09-01T22:07:45.362Z,13.87
2022-09-01T22:10:22.346Z,13.82
2022-09-01T22:12:50.399Z,13.54
2022-09-01T22:15:21.416Z,12.87
2022-09-01T22:17:50.520Z,12.36
2022-09-01T22:20:22.351Z,12.20
2022-09-01T22:22:50.784Z,12.41
2022-09-01T22:25:20.802Z,12.66
2022-09-01T22:27:48.757Z,12.80
2022-09-01T22:30:16.799Z,12.91
2022-09-01T22:32:45.405Z,12.98
2022-09-01T22:35:14.356Z,13.04
2022-09-01T22:37:42.530Z,13.07
2022-09-01T22:40:11.754Z,13.08
2022-09-01T22:42:39.732Z,13.07
2022-09-01T22:45:08.472Z,13.03
2022-09-01T22:47:38.516Z,13.00
2022-09-01T22:50:08.870Z,12.98
2022-09-01T22:52:37.540Z,12.97
2022-09-01T22:55:06.007Z,12.94
2022-09-01T22:57:35.780Z,12.97
2022-09-01T23:00:08.894Z,13.01
2022-09-01T23:02:36.879Z,13.01
2022-09-01T23:05:06.074Z,13.01
2022-09-01T23:07:37.717Z,12.99
2022-09-01T23:10:08.723Z,12.97
2022-09-01T23:12:36.517Z,12.96
2022-09-01T23:15:05.545Z,12.95
2022-09-01T23:17:33.239Z,12.95
2022-09-01T23:20:02.271Z,12.95
2022-09-01T23:22:30.028Z,12.95
2022-09-01T23:24:57.769Z,12.93
2022-09-01T23:27:25.499Z,12.90
2022-09-01T23:29:53.217Z,12.87
2022-09-01T23:32:20.901Z,12.83
2022-09-01T23:34:48.579Z,12.78
2022-09-01T23:37:16.634Z,12.74
2022-09-01T23:39:44.454Z,12.68
2022-09-01T23:42:12.559Z,12.66
2022-09-01T23:44:40.348Z,12.64
2022-09-01T23:47:08.144Z,12.63
2022-09-01T23:49:35.829Z,12.62
2022-09-01T23:52:03.651Z,12.60
2022-09-01T23:54:31.516Z,12.58
2022-09-01T23:56:59.427Z,12.58
2022-09-01T23:59:28.767Z,12.57
